Latest Coastal Weather Observations for Tewantin

IDQ60701

Issued at 10:35 pm EST Thursday 2 October 2014 (issued every 10 minutes, with the page automatically refreshed every 10 minutes)

About coastal observations | Map of coastal stations | Coastal observations for QLD | Marine services | Other Formats
Station Details ID: 040908 Name: TEWANTIN RSL PARK Lat: -26.39 Lon: 153.04 Height: 6.4 m
Data from the previous 72 hours. | See also: Recent months at Tewantin
Date/Time
EST
Temp

°C
Wind Pressure Rain
since 9am
mm
Weather Cloud Vis
km
Sea
Height
m
Swell
Dir
 
Speed
knots
Gust
knots
hPa Trend Height
m
Period
s
Dir
02/10:30pm 15.2 SSW 0 3 1021.2 - 0.0 - - - - - - -
02/10:00pm 15.6 CALM 0 0 1021.3 - 0.0 - - - - - - -
02/09:30pm 16.2 CALM 0 0 1021.3 - 0.0 - - - - - - -
02/09:00pm 16.6 SW 2 3 1021.3 - 0.0 - - - - - - -
02/08:30pm 17.4 SSW 1 4 1021.2 - 0.0 - - - - - - -
02/08:00pm 18.2 E 3 5 1021.1 - 0.0 - - - - - - -
02/07:30pm 18.3 E 4 5 1020.8 - 0.0 - - - - - - -
02/07:00pm 18.3 E 4 5 1020.7 - 0.0 - - - - - - -
02/06:30pm 18.5 E 3 5 1020.6 - 0.0 - - - - - - -
02/06:00pm 18.9 E 4 6 1020.5 - 0.0 - - - - - - -
02/05:30pm 19.5 E 6 8 1020.3 - 0.0 - - - - - - -
02/05:00pm 20.0 ESE 7 10 1020.1 - 0.0 - - - - - - -
02/04:30pm 20.4 E 7 11 1020.1 - 0.0 - - - - - - -
02/04:00pm 20.4 ESE 8 11 1019.9 - 0.0 - - - - - - -
02/03:30pm 20.5 ESE 8 13 1019.8 - 0.0 - - - - - - -
02/03:00pm 20.4 SE 8 12 1019.9 - 0.0 - - - - - - -
02/02:30pm 20.7 ESE 9 15 1019.9 - 0.0 - - - - - - -
02/02:00pm 20.7 E 8 16 1020.0 - 0.0 - - - - - - -
02/01:30pm 20.7 ESE 9 13 1020.3 - 0.0 - - - - - - -
02/01:00pm 21.4 ESE 9 15 1020.5 - 0.0 - - - - - - -
02/12:30pm 20.7 ESE 8 14 1020.8 - 0.0 - - - - - - -
02/12:00pm 21.2 ESE 9 16 1021.0 - 0.0 - - - - - - -
02/11:30am 21.4 ESE 11 15 1021.3 - 0.0 - - - - - - -
02/11:00am 21.5 ESE 11 16 1021.6 - 0.0 - - - - - - -
02/10:30am 20.9 ESE 9 15 1022.0 - 0.0 - - - - - - -
02/10:00am 20.6 SE 9 16 1022.0 - 0.0 - - - - - - -
02/09:30am 20.9 ESE 10 16 1022.1 - 0.0 - - - - - - -
02/09:00am 20.5 ESE 11 18 1022.1 - 0.0 - - - - - - -
02/08:30am 20.7 ESE 11 17 1022.1 - 0.0 - - - - - - -
02/08:00am 20.9 SE 11 18 1021.8 - 0.0 - - - - - - -
02/07:30am 20.1 SE 9 17 1021.5 - 0.0 - - - - - - -
02/07:00am 20.0 SE 10 17 1021.1 - 0.0 - - - - - - -
02/06:30am 19.9 ESE 9 14 1020.9 - 0.0 - - - - - - -
02/06:00am 19.9 ESE 10 16 1020.5 - 0.0 - - - - - - -
02/05:30am 19.9 SE 9 15 1020.0 - 0.0 - - - - - - -
02/05:00am 19.9 SE 10 18 1019.6 - 0.0 - - - - - - -
02/04:30am 19.9 SE 10 18 1019.3 - 0.0 - - - - - - -
02/04:00am 20.0 SE 11 18 1018.9 - 0.0 - - - - - - -
02/03:30am 20.1 SE 9 20 1018.7 - 0.0 - - - - - - -
02/03:00am 20.1 SSE 11 19 1018.7 - 0.0 - - - - - - -
02/02:30am 20.1 SSE 10 23 1018.5 - 0.0 - - - - - - -
02/02:00am 20.2 SSE 11 18 1018.5 - 0.0 - - - - - - -
02/01:30am 20.3 SSE 11 20 1018.6 - 0.0 - - - - - - -
02/01:00am 20.4 SSE 11 21 1018.6 - 0.0 - - - - - - -
02/12:30am 20.7 SSE 12 19 1018.5 - 0.0 - - - - - - -
02/12:00am 20.8 SSE 11 19 1018.4 - 0.0 - - - - - - -
 
Date/Time
EST
Temp

°C
Wind Pressure Rain
since 9am
mm
Weather Cloud Vis
km
Sea
Height
m
Swell
Dir
 
Speed
knots
Gust
knots
hPa Trend Height
m
Period
s
Dir
01/11:30pm 20.8 S 14 24 1018.1 - 0.0 - - - - - - -
01/11:00pm 21.1 SSE 12 21 1017.9 - 0.0 - - - - - - -
01/10:30pm 21.1 S 13 23 1017.7 - 0.0 - - - - - - -
01/10:00pm 21.3 S 12 23 1017.4 - 0.0 - - - - - - -
01/09:30pm 21.4 S 13 20 1016.9 - 0.0 - - - - - - -
01/09:00pm 21.0 S 3 5 1016.3 - 0.0 - - - - - - -
01/08:30pm 21.1 NW 4 9 1014.9 - 0.0 - - - - - - -
01/08:00pm 21.6 NNW 7 12 1014.2 - 0.0 - - - - - - -
01/07:30pm 22.0 N 6 9 1013.9 - 0.0 - - - - - - -
01/07:00pm 22.3 N 7 11 1013.7 - 0.0 - - - - - - -
01/06:30pm 23.3 NNW 8 13 1013.6 - 0.0 - - - - - - -
01/06:00pm 23.8 N 6 10 1012.9 - 0.0 - - - - - - -
01/05:30pm 23.3 NNE 5 7 1012.7 - 0.0 - - - - - - -
01/05:00pm 24.0 NNE 9 13 1012.5 - 0.0 - - - - - - -
01/04:30pm 24.6 NNE 11 16 1012.4 - 0.0 - - - - - - -
01/04:00pm 24.5 NNE 11 16 1012.3 - 0.0 - - - - - - -
01/03:30pm 24.4 NNE 12 16 1012.4 - 0.0 - - - - - - -
01/03:00pm 24.7 NNE 11 16 1012.6 - 0.0 - - - - - - -
01/02:30pm 25.2 NNE 10 15 1013.0 - 0.0 - - - - - - -
01/02:00pm 25.5 NNE 10 15 1013.4 - 0.0 - - - - - - -
01/01:30pm 26.5 NE 9 13 1013.8 - 0.0 - - - - - - -
01/01:00pm 28.4 N 8 11 1014.2 - 0.0 - - - - - - -
01/12:30pm 27.3 N 10 13 1014.7 - 0.0 - - - - - - -
01/12:00pm 27.7 NW 5 8 1015.6 - 0.0 - - - - - - -
01/11:30am 26.5 NNW 7 11 1016.2 - 0.0 - - - - - - -
01/11:00am 27.2 W 5 8 1017.1 - 0.0 - - - - - - -
01/10:30am 25.8 W 7 13 1017.6 - 0.0 - - - - - - -
01/10:00am 25.4 WNW 5 10 1017.7 - 0.0 - - - - - - -
01/09:30am 24.1 NW 7 14 1017.8 - 0.0 - - - - - - -
01/09:00am 22.9 NNW 7 12 1018.2 - 0.0 - - - - - - -
01/08:30am 22.3 NW 8 14 1018.4 - 0.0 - - - - - - -
01/08:00am 21.3 NNW 9 14 1018.4 - 0.0 - - - - - - -
01/07:30am 20.3 NW 5 7 1018.4 - 0.0 - - - - - - -
01/07:00am 18.3 NNW 4 6 1018.3 - 0.0 - - - - - - -
01/06:30am 16.1 N 3 4 1018.0 - 0.0 - - - - - - -
01/06:00am 15.1 N 3 5 1017.9 - 0.0 - - - - - - -
01/05:30am 14.8 CALM 0 0 1017.8 - 0.0 - - - - - - -
01/05:00am 15.4 N 2 3 1017.7 - 0.0 - - - - - - -
01/04:30am 15.6 N 3 4 1017.7 - 0.0 - - - - - - -
01/04:00am 16.1 N 4 5 1017.6 - 0.0 - - - - - - -
01/03:30am 16.0 N 4 5 1017.6 - 0.0 - - - - - - -
01/03:00am 16.0 N 3 4 1017.7 - 0.0 - - - - - - -
01/02:30am 16.0 N 2 4 1017.8 - 0.0 - - - - - - -
01/02:00am 16.1 N 3 4 1018.1 - 0.0 - - - - - - -
01/01:30am 16.5 CALM 0 0 1018.4 - 0.0 - - - - - - -
01/01:00am 16.9 N 4 5 1018.5 - 0.0 - - - - - - -
01/12:30am 17.3 N 4 5 1018.8 - 0.0 - - - - - - -
01/12:00am 17.3 NNW 3 5 1019.0 - 0.0 - - - - - - -
 
Date/Time
EST
Temp

°C
Wind Pressure Rain
since 9am
mm
Weather Cloud Vis
km
Sea
Height
m
Swell
Dir
 
Speed
knots
Gust
knots
hPa Trend Height
m
Period
s
Dir
30/11:30pm 17.5 NNW 4 6 1019.1 - 0.0 - - - - - - -
30/11:00pm 17.9 NNW 4 6 1019.2 - 0.0 - - - - - - -
30/10:30pm 18.2 NNW 5 9 1019.2 - 0.0 - - - - - - -
30/10:00pm 18.2 NNW 5 8 1019.3 - 0.0 - - - - - - -
30/09:30pm 18.8 NW 4 7 1019.3 - 0.0 - - - - - - -
30/09:00pm 19.2 N 4 5 1019.3 - 0.0 - - - - - - -
30/08:30pm 19.5 NNW 4 6 1019.2 - 0.0 - - - - - - -
30/08:00pm 20.0 N 5 7 1019.1 - 0.0 - - - - - - -
30/07:30pm 20.4 N 8 11 1018.9 - 0.0 - - - - - - -
30/07:00pm 20.7 N 8 12 1018.6 - 0.0 - - - - - - -
30/06:30pm 21.0 N 8 11 1018.3 - 0.0 - - - - - - -
30/06:00pm 21.1 NNE 10 14 1017.9 - 0.0 - - - - - - -
30/05:30pm 21.5 NNE 11 15 1017.7 - 0.0 - - - - - - -
30/05:00pm 21.9 NNE 12 18 1017.6 - 0.0 - - - - - - -
30/04:30pm 22.1 NNE 12 20 1017.4 - 0.0 - - - - - - -
30/04:00pm 22.2 NNE 14 21 1017.2 - 0.0 - - - - - - -
30/03:30pm 22.4 NNE 15 22 1017.3 - 0.0 - - - - - - -
30/03:00pm 22.8 NNE 15 21 1017.4 - 0.0 - - - - - - -
30/02:30pm 22.8 NNE 14 19 1017.7 - 0.0 - - - - - - -
30/02:00pm 23.0 NNE 13 17 1017.9 - 0.0 - - - - - - -
30/01:30pm 23.2 NE 11 16 1018.3 - 0.0 - - - - - - -
30/01:00pm 23.1 NNE 12 17 1018.6 - 0.0 - - - - - - -
30/12:30pm 23.4 NNE 10 16 1019.0 - 0.0 - - - - - - -
30/12:00pm 23.5 NE 9 14 1019.6 - 0.0 - - - - - - -
30/11:30am 23.7 NE 10 13 1019.9 - 0.0 - - - - - - -
30/11:00am 24.0 N 8 12 1020.3 - 0.0 - - - - - - -
30/10:30am 23.5 N 7 11 1020.7 - 0.0 - - - - - - -
30/10:00am 23.1 N 7 13 1021.1 - 0.0 - - - - - - -
30/09:30am 22.1 N 7 11 1021.5 - 0.0 - - - - - - -
30/09:00am 21.5 N 7 11 1021.6 - 0.0 - - - - - - -
30/08:30am 20.9 NNW 5 9 1021.6 - 0.0 - - - - - - -
30/08:00am 20.2 NW 4 7 1021.5 - 0.0 - - - - - - -
30/07:30am 18.7 NNW 4 6 1021.5 - 0.0 - - - - - - -
30/07:00am 16.9 NW 4 7 1021.2 - 0.0 - - - - - - -
30/06:30am 14.6 WNW 2 4 1021.1 - 0.0 - - - - - - -
30/06:00am 12.8 CALM 0 0 1020.8 - 0.0 - - - - - - -
30/05:30am 12.2 CALM 0 0 1020.4 - 0.0 - - - - - - -
30/05:00am 12.4 CALM 0 0 1020.1 - 0.0 - - - - - - -
30/04:30am 12.4 CALM 0 0 1019.9 - 0.0 - - - - - - -
30/04:00am 12.6 WNW 1 3 1019.6 - 0.0 - - - - - - -
30/03:30am 13.4 WNW 3 4 1019.5 - 0.0 - - - - - - -
30/03:00am 14.1 NW 3 4 1019.5 - 0.0 - - - - - - -
30/02:30am 14.1 NNW 1 3 1019.6 - 0.0 - - - - - - -
30/02:00am 14.7 NW 3 5 1019.6 - 0.0 - - - - - - -
30/01:30am 15.2 NNW 4 6 1019.5 - 0.0 - - - - - - -
30/01:00am 15.4 NNW 4 5 1019.7 - 0.0 - - - - - - -
30/12:30am 15.3 N 4 6 1020.0 - 0.0 - - - - - - -
30/12:00am 15.4 NNW 3 5 1019.9 - 0.0 - - - - - - -
 
Date/Time
EST
Temp

°C
Wind Pressure Rain
since 9am
mm
Weather Cloud Vis
km
Sea
Height
m
Swell
Dir
 
Speed
knots
Gust
knots
hPa Trend Height
m
Period
s
Dir
29/11:30pm 15.6 W 1 3 1020.3 - 0.0 - - - - - - -
29/11:00pm 16.0 WNW 2 4 1020.6 - 0.0 - - - - - - -

Other Formats:

Comma delimited format used in spreadsheet applications
http://www.bom.gov.au/fwo/IDQ60701/IDQ60701.94570.axf

JavaScript Object Notation format (JSON) in row-major order
http://www.bom.gov.au/fwo/IDQ60701/IDQ60701.94570.json